createdAt,value
2018-12-02T00:01:22.968Z,21.10
2018-12-02T00:03:55.620Z,19.93
2018-12-02T00:06:28.984Z,20.37
2018-12-02T00:09:01.461Z,24.27
2018-12-02T00:11:32.658Z,20.43
2018-12-02T00:14:05.078Z,20.53
2018-12-02T00:16:37.698Z,23.07
2018-12-02T00:19:10.814Z,21.87
2018-12-02T00:21:44.027Z,20.33
2018-12-02T00:24:16.213Z,21.60
2018-12-02T00:26:48.619Z,21.43
2018-12-02T00:29:20.860Z,20.67
2018-12-02T00:31:53.022Z,25.90
2018-12-02T00:34:25.587Z,21.97
2018-12-02T00:36:56.535Z,21.10
2018-12-02T00:39:28.983Z,20.40
2018-12-02T00:41:59.748Z,25.60
2018-12-02T00:44:33.127Z,20.97
2018-12-02T00:47:04.568Z,20.23
2018-12-02T00:49:36.450Z,19.53
2018-12-02T00:52:10.231Z,20.73
2018-12-02T00:54:41.100Z,21.20
2018-12-02T00:57:11.926Z,21.53
2018-12-02T00:59:42.883Z,21.80
2018-12-02T01:02:14.115Z,20.00
2018-12-02T01:04:45.872Z,20.80
2018-12-02T01:07:16.576Z,19.97
2018-12-02T01:09:50.743Z,22.33
2018-12-02T01:12:21.942Z,20.80
2018-12-02T01:14:52.933Z,22.90
2018-12-02T01:17:25.283Z,21.60
2018-12-02T01:19:57.789Z,20.23
2018-12-02T01:22:28.622Z,21.27
2018-12-02T01:25:00.146Z,22.20
2018-12-02T01:27:33.847Z,22.20
2018-12-02T01:30:05.785Z,21.50
2018-12-02T01:32:37.066Z,21.47
2018-12-02T01:35:08.636Z,21.20
2018-12-02T01:37:41.301Z,21.17
2018-12-02T01:40:22.704Z,21.57
2018-12-02T01:42:56.023Z,21.77
2018-12-02T01:45:31.286Z,21.93
2018-12-02T01:48:03.575Z,22.63
2018-12-02T01:50:35.190Z,25.23
2018-12-02T01:53:07.250Z,27.83
2018-12-02T01:55:40.942Z,22.57
2018-12-02T01:58:14.063Z,23.70
2018-12-02T02:00:46.007Z,21.17
2018-12-02T02:03:16.798Z,26.53
2018-12-02T02:05:48.930Z,26.33
2018-12-02T02:08:20.287Z,25.60
2018-12-02T02:10:52.180Z,28.43
2018-12-02T02:13:22.787Z,23.67
2018-12-02T02:16:06.913Z,24.20
2018-12-02T02:18:41.554Z,21.53
2018-12-02T02:21:13.257Z,23.00
2018-12-02T02:23:44.145Z,23.33
2018-12-02T02:26:16.175Z,22.27
2018-12-02T02:28:47.387Z,21.70
2018-12-02T02:31:19.738Z,24.07
2018-12-02T02:33:51.069Z,22.93
2018-12-02T02:36:22.623Z,23.80
2018-12-02T02:38:54.110Z,22.83
2018-12-02T02:41:26.715Z,22.70
2018-12-02T02:43:57.766Z,24.03
2018-12-02T02:46:28.586Z,24.43
2018-12-02T02:49:00.630Z,22.97
2018-12-02T02:51:32.012Z,23.63
2018-12-02T02:54:05.011Z,23.57
2018-12-02T02:56:37.580Z,24.43
2018-12-02T02:59:08.532Z,24.77
2018-12-02T03:01:40.047Z,23.30
2018-12-02T03:04:13.453Z,25.43
2018-12-02T03:06:44.434Z,21.80
2018-12-02T03:09:17.171Z,29.00
2018-12-02T03:11:49.418Z,22.87
2018-12-02T03:14:21.089Z,21.90
2018-12-02T03:16:53.015Z,22.07
2018-12-02T03:19:24.726Z,23.43
2018-12-02T03:21:55.839Z,21.63
2018-12-02T03:24:27.142Z,24.23
2018-12-02T03:26:57.731Z,21.80
2018-12-02T03:29:28.487Z,20.03
2018-12-02T03:32:00.431Z,20.23
2018-12-02T03:34:32.580Z,21.27
2018-12-02T03:37:03.785Z,24.70
2018-12-02T03:39:35.375Z,20.40
2018-12-02T03:42:08.037Z,20.03
2018-12-02T03:44:38.764Z,20.83
2018-12-02T03:47:11.102Z,20.20
2018-12-02T03:49:45.517Z,17.80
2018-12-02T03:52:18.354Z,17.07
2018-12-02T03:54:49.058Z,18.00
2018-12-02T03:57:20.075Z,16.53
2018-12-02T03:59:53.229Z,17.57
2018-12-02T04:02:25.572Z,16.63
2018-12-02T04:04:57.634Z,17.53
2018-12-02T04:07:29.310Z,17.57
2018-12-02T04:10:02.247Z,16.40
2018-12-02T04:12:33.354Z,19.03
2018-12-02T04:15:07.014Z,18.37
2018-12-02T04:17:40.672Z,17.30
2018-12-02T04:20:13.405Z,18.60
2018-12-02T04:22:44.951Z,19.93
2018-12-02T04:25:26.020Z,18.97
2018-12-02T04:27:57.172Z,20.97
2018-12-02T04:30:28.596Z,17.43
2018-12-02T04:33:12.813Z,15.93
2018-12-02T04:35:44.271Z,18.00
2018-12-02T04:38:15.180Z,18.27
2018-12-02T04:40:46.560Z,18.27
2018-12-02T04:43:19.882Z,17.80
2018-12-02T04:45:52.863Z,18.37
2018-12-02T04:48:24.604Z,17.07
2018-12-02T04:50:55.558Z,17.73
2018-12-02T04:53:27.863Z,17.87
2018-12-02T04:55:58.970Z,16.77
2018-12-02T04:58:31.355Z,16.70
2018-12-02T05:01:03.419Z,15.67
2018-12-02T05:03:37.040Z,17.13
2018-12-02T05:06:08.072Z,18.57
2018-12-02T05:08:41.314Z,17.97
2018-12-02T05:11:14.287Z,16.77
2018-12-02T05:13:46.625Z,23.10
2018-12-02T05:16:18.566Z,19.13
2018-12-02T05:18:51.890Z,15.43
2018-12-02T05:21:25.038Z,17.63
2018-12-02T05:23:55.842Z,20.70
2018-12-02T05:26:29.681Z,22.37
2018-12-02T05:29:04.333Z,24.90
2018-12-02T05:31:36.451Z,22.33
2018-12-02T05:34:09.080Z,21.37
2018-12-02T05:36:42.322Z,20.07
2018-12-02T05:39:14.477Z,20.83
2018-12-02T05:41:50.354Z,21.63
2018-12-02T05:44:22.351Z,23.13
2018-12-02T05:46:57.452Z,23.37
2018-12-02T05:49:29.300Z,24.00
2018-12-02T05:52:02.163Z,24.70
2018-12-02T05:54:34.867Z,29.93
2018-12-02T05:57:08.784Z,27.93
2018-12-02T05:59:40.953Z,22.73
2018-12-02T06:02:11.875Z,19.37
2018-12-02T06:04:44.647Z,19.27
2018-12-02T06:07:16.157Z,22.67
2018-12-02T06:09:48.299Z,21.33
2018-12-02T06:12:24.042Z,20.27
2018-12-02T06:14:55.298Z,17.93
2018-12-02T06:17:26.409Z,21.03
2018-12-02T06:19:57.356Z,19.33
2018-12-02T06:22:28.518Z,21.13
2018-12-02T06:24:59.450Z,22.00
2018-12-02T06:27:30.630Z,21.27
2018-12-02T06:30:01.328Z,20.33
2018-12-02T06:32:45.482Z,20.80
2018-12-02T06:35:17.099Z,26.47
2018-12-02T06:37:50.887Z,24.70
2018-12-02T06:40:27.362Z,24.50
2018-12-02T06:43:00.021Z,26.07
2018-12-02T06:45:31.427Z,27.07
2018-12-02T06:48:02.389Z,25.17
2018-12-02T06:50:33.836Z,24.50
2018-12-02T06:53:07.042Z,24.10
2018-12-02T06:55:51.344Z,20.53
2018-12-02T06:58:30.676Z,21.37
2018-12-02T07:01:11.646Z,24.87
2018-12-02T07:03:47.647Z,23.23
2018-12-02T07:06:19.324Z,20.33
2018-12-02T07:08:51.387Z,21.40
2018-12-02T07:11:23.793Z,21.60
2018-12-02T07:13:55.790Z,21.47
2018-12-02T07:16:26.585Z,20.47
2018-12-02T07:18:57.536Z,20.53
2018-12-02T07:21:29.773Z,21.77
2018-12-02T07:24:01.615Z,22.00
2018-12-02T07:26:35.326Z,17.63
2018-12-02T07:29:07.440Z,17.43
2018-12-02T07:31:41.157Z,18.37
2018-12-02T07:34:12.479Z,17.83
2018-12-02T07:36:43.568Z,21.83
2018-12-02T07:40:30.564Z,21.20
2018-12-02T07:43:05.441Z,19.63
2018-12-02T07:45:36.457Z,17.90
2018-12-02T07:48:07.385Z,21.67
2018-12-02T07:50:38.389Z,18.87
2018-12-02T07:53:10.451Z,18.77
2018-12-02T07:55:41.566Z,18.87
2018-12-02T07:58:15.203Z,18.17
2018-12-02T08:00:46.600Z,17.17
2018-12-02T08:03:18.422Z,21.90
2018-12-02T08:05:49.660Z,19.03
2018-12-02T08:08:20.612Z,19.00
2018-12-02T08:10:51.748Z,21.10
2018-12-02T08:13:22.473Z,19.00
2018-12-02T08:15:53.317Z,18.63
2018-12-02T08:18:24.443Z,18.83
2018-12-02T08:20:55.004Z,18.47
2018-12-02T08:23:55.234Z,18.17
2018-12-02T08:26:27.985Z,16.27
2018-12-02T08:28:58.822Z,18.30
2018-12-02T08:31:31.349Z,20.43
2018-12-02T08:34:02.120Z,18.87
2018-12-02T08:36:33.077Z,18.80
2018-12-02T08:39:07.407Z,16.60
2018-12-02T08:41:38.037Z,16.97
2018-12-02T08:44:08.918Z,18.73
2018-12-02T08:46:39.410Z,17.47
2018-12-02T08:49:10.995Z,17.43
2018-12-02T08:51:41.642Z,19.37
2018-12-02T08:54:16.693Z,18.60
2018-12-02T08:56:48.322Z,19.17
2018-12-02T08:59:19.634Z,17.73
2018-12-02T09:01:50.560Z,16.43
2018-12-02T09:04:21.507Z,19.07
2018-12-02T09:06:52.380Z,18.63
2018-12-02T09:09:23.527Z,18.43
2018-12-02T09:11:55.428Z,18.17
2018-12-02T09:14:26.501Z,17.77
2018-12-02T09:16:57.362Z,17.30
2018-12-02T09:19:28.656Z,17.13
2018-12-02T09:21:59.624Z,16.83
2018-12-02T09:24:30.276Z,17.80
2018-12-02T09:27:01.342Z,17.20
2018-12-02T09:29:33.998Z,17.70
2018-12-02T09:32:05.167Z,18.10
2018-12-02T09:34:35.674Z,17.90
2018-12-02T09:37:07.500Z,16.03
2018-12-02T09:39:38.714Z,16.13
2018-12-02T09:42:09.687Z,17.00
2018-12-02T09:44:40.812Z,16.13
2018-12-02T09:47:17.392Z,16.30
2018-12-02T09:49:48.154Z,15.63
2018-12-02T09:52:20.907Z,15.20
2018-12-02T09:54:52.430Z,16.33
2018-12-02T09:57:24.935Z,14.87
2018-12-02T09:59:56.562Z,15.20
2018-12-02T10:02:27.741Z,14.67
2018-12-02T10:04:58.426Z,13.90
2018-12-02T10:07:29.853Z,13.33
2018-12-02T10:10:00.674Z,14.13
2018-12-02T10:12:39.536Z,13.67
2018-12-02T10:15:12.952Z,13.23
2018-12-02T10:17:45.066Z,13.53
2018-12-02T10:20:16.790Z,13.30
2018-12-02T10:22:48.128Z,13.43
2018-12-02T10:25:20.326Z,13.87
2018-12-02T10:27:52.630Z,12.47
2018-12-02T10:30:26.219Z,13.37
2018-12-02T10:32:58.113Z,13.27
2018-12-02T10:35:29.864Z,13.20
2018-12-02T10:38:00.917Z,13.93
2018-12-02T10:40:32.754Z,13.07
2018-12-02T10:43:02.392Z,12.37
2018-12-02T10:45:35.513Z,12.67
2018-12-02T10:48:11.066Z,14.63
2018-12-02T10:50:42.088Z,14.17
2018-12-02T10:53:18.398Z,14.17
2018-12-02T10:55:54.828Z,13.50
2018-12-02T10:58:28.679Z,12.87
2018-12-02T11:01:06.933Z,12.23
2018-12-02T11:03:37.556Z,12.37
2018-12-02T11:06:08.276Z,12.27
2018-12-02T11:08:40.599Z,14.47
2018-12-02T11:11:11.331Z,13.40
2018-12-02T11:13:42.186Z,15.20
2018-12-02T11:16:12.726Z,13.63
2018-12-02T11:18:44.273Z,12.57
2018-12-02T11:21:15.116Z,13.30
2018-12-02T11:23:46.535Z,13.57
2018-12-02T11:26:17.347Z,13.57
2018-12-02T11:28:47.975Z,14.53
2018-12-02T11:31:19.530Z,14.20
2018-12-02T11:33:49.970Z,13.30
2018-12-02T11:36:21.484Z,13.77
2018-12-02T11:38:52.657Z,13.27
2018-12-02T11:41:24.147Z,13.77
2018-12-02T11:43:54.985Z,14.63
2018-12-02T11:46:28.406Z,14.00
2018-12-02T11:49:00.286Z,14.83
2018-12-02T11:51:32.168Z,14.70
2018-12-02T11:54:06.644Z,14.13
2018-12-02T11:56:37.058Z,13.53
2018-12-02T11:59:07.952Z,14.50
2018-12-02T12:01:38.602Z,15.00
2018-12-02T12:04:09.470Z,14.23
2018-12-02T12:06:40.427Z,14.57
2018-12-02T12:09:11.723Z,14.07
2018-12-02T12:11:42.830Z,14.57
2018-12-02T12:14:13.784Z,15.03
2018-12-02T12:16:44.704Z,14.53
2018-12-02T12:19:15.439Z,13.97
2018-12-02T12:21:46.431Z,14.87
2018-12-02T12:24:16.937Z,13.83
2018-12-02T12:26:47.741Z,14.07
2018-12-02T12:29:19.341Z,14.47
2018-12-02T12:31:50.122Z,13.03
2018-12-02T12:34:21.644Z,13.90
2018-12-02T12:36:53.475Z,12.83
2018-12-02T12:39:24.171Z,14.57
2018-12-02T12:41:55.955Z,13.97
2018-12-02T12:44:26.876Z,12.60
2018-12-02T12:46:58.761Z,12.53
2018-12-02T12:49:31.027Z,11.07
2018-12-02T12:52:02.064Z,11.73
2018-12-02T12:54:34.068Z,12.07
2018-12-02T12:57:04.832Z,12.83
2018-12-02T12:59:35.583Z,13.27
2018-12-02T13:02:06.619Z,13.27
2018-12-02T13:04:38.518Z,12.23
2018-12-02T13:07:10.334Z,12.63
2018-12-02T13:09:41.239Z,13.97
2018-12-02T13:12:15.768Z,14.27
2018-12-02T13:14:47.471Z,14.27
2018-12-02T13:17:18.022Z,13.27
2018-12-02T13:19:48.786Z,14.80
2018-12-02T13:22:19.648Z,15.07
2018-12-02T13:24:50.412Z,15.73
2018-12-02T13:27:21.552Z,15.47
2018-12-02T13:29:53.518Z,16.23
2018-12-02T13:32:25.326Z,16.50
2018-12-02T13:34:56.174Z,15.60
2018-12-02T13:37:27.480Z,14.97
2018-12-02T13:39:58.632Z,15.30
2018-12-02T13:42:29.391Z,15.53
2018-12-02T13:45:00.094Z,15.47
2018-12-02T13:47:30.770Z,15.60
2018-12-02T13:50:02.144Z,14.57
2018-12-02T13:52:32.842Z,14.57
2018-12-02T13:55:03.552Z,13.07
2018-12-02T13:57:34.405Z,13.53
2018-12-02T14:00:09.401Z,15.57
2018-12-02T14:02:42.269Z,16.03
2018-12-02T14:05:14.202Z,14.40
2018-12-02T14:07:45.358Z,15.40
2018-12-02T14:10:17.146Z,14.97
2018-12-02T14:12:55.954Z,16.37
2018-12-02T14:15:46.288Z,13.97
2018-12-02T14:18:28.730Z,13.67
2018-12-02T14:20:59.490Z,14.70
2018-12-02T14:23:32.077Z,13.17
2018-12-02T14:26:12.728Z,13.17
2018-12-02T14:28:54.034Z,13.57
2018-12-02T14:31:29.583Z,14.47
2018-12-02T14:34:04.374Z,13.40
2018-12-02T14:36:38.269Z,12.07
2018-12-02T14:39:15.944Z,12.87
2018-12-02T14:41:48.690Z,13.13
2018-12-02T14:44:22.250Z,12.57
2018-12-02T14:46:56.814Z,13.20
2018-12-02T14:49:31.179Z,14.00
2018-12-02T14:52:06.966Z,13.93
2018-12-02T14:54:42.604Z,12.43
2018-12-02T14:57:15.705Z,12.67
2018-12-02T14:59:49.223Z,12.63
2018-12-02T15:02:25.163Z,11.77
2018-12-02T15:05:00.496Z,12.40
2018-12-02T15:07:34.583Z,11.77
2018-12-02T15:10:13.249Z,12.37
2018-12-02T15:12:49.702Z,12.77
2018-12-02T15:15:24.082Z,11.97
2018-12-02T15:17:57.578Z,12.97
2018-12-02T15:20:28.671Z,12.93
2018-12-02T15:22:59.766Z,12.33
2018-12-02T15:25:30.937Z,13.83
2018-12-02T15:28:01.456Z,14.30
2018-12-02T15:30:32.081Z,13.53
2018-12-02T15:33:02.960Z,14.40
2018-12-02T15:35:33.695Z,13.93
2018-12-02T15:38:04.434Z,12.80
2018-12-02T15:40:36.156Z,13.17
2018-12-02T15:43:09.057Z,14.33
2018-12-02T15:45:39.972Z,14.87
2018-12-02T15:48:15.122Z,13.10
2018-12-02T15:50:50.419Z,14.07
2018-12-02T15:53:20.737Z,14.03
2018-12-02T15:55:52.526Z,13.40
2018-12-02T15:58:24.532Z,13.37
2018-12-02T16:00:56.920Z,14.90
2018-12-02T16:03:28.819Z,14.50
2018-12-02T16:05:59.890Z,13.97
2018-12-02T16:08:30.884Z,15.33
2018-12-02T16:11:02.575Z,15.87
2018-12-02T16:13:34.964Z,14.93
2018-12-02T16:16:06.010Z,14.43
2018-12-02T16:18:37.004Z,15.30
2018-12-02T16:21:08.263Z,15.60
2018-12-02T16:23:40.162Z,14.90
2018-12-02T16:26:13.030Z,14.90
2018-12-02T16:28:44.280Z,14.87
2018-12-02T16:31:14.875Z,14.37
2018-12-02T16:33:45.689Z,15.77
2018-12-02T16:36:16.279Z,14.27
2018-12-02T16:38:47.420Z,14.73
2018-12-02T16:41:19.224Z,14.77
2018-12-02T16:43:51.337Z,15.50
2018-12-02T16:46:22.233Z,16.13
2018-12-02T16:48:52.983Z,15.00
2018-12-02T16:51:23.682Z,16.47
2018-12-02T16:53:54.719Z,15.87
2018-12-02T16:56:26.551Z,15.23
2018-12-02T17:02:04.936Z,16.10
2018-12-02T17:04:30.564Z,15.30
2018-12-02T17:07:05.365Z,13.90
2018-12-02T17:09:36.471Z,15.77
2018-12-02T17:12:07.454Z,16.70
2018-12-02T17:14:38.763Z,17.20
2018-12-02T17:17:10.348Z,16.10
2018-12-02T17:19:40.940Z,17.20
2018-12-02T17:22:11.950Z,16.57
2018-12-02T17:24:42.650Z,16.20
2018-12-02T17:27:14.301Z,17.00
2018-12-02T17:29:44.824Z,17.47
2018-12-02T17:32:15.867Z,17.77
2018-12-02T17:34:47.228Z,17.07
2018-12-02T17:37:19.294Z,17.20
2018-12-02T17:39:53.872Z,17.80
2018-12-02T17:42:24.486Z,17.43
2018-12-02T17:44:55.852Z,18.20
2018-12-02T17:47:26.858Z,19.30
2018-12-02T17:49:57.465Z,18.97
2018-12-02T17:52:28.382Z,19.47
2018-12-02T17:55:00.415Z,18.13
2018-12-02T17:57:31.160Z,18.70
2018-12-02T18:00:01.883Z,17.83
2018-12-02T18:02:32.661Z,18.53
2018-12-02T18:05:03.901Z,18.93
2018-12-02T18:07:35.228Z,19.47
2018-12-02T18:10:08.508Z,19.37
2018-12-02T18:12:39.436Z,18.83
2018-12-02T18:15:13.396Z,18.93
2018-12-02T18:17:46.111Z,19.93
2018-12-02T18:20:19.038Z,19.87
2018-12-02T18:22:50.884Z,19.83
2018-12-02T18:25:22.154Z,19.70
2018-12-02T18:27:53.356Z,19.97
2018-12-02T18:30:26.594Z,18.77
2018-12-02T18:33:01.024Z,20.17
2018-12-02T18:36:00.243Z,19.77
2018-12-02T18:38:33.603Z,21.90
2018-12-02T18:41:21.489Z,21.17
2018-12-02T18:43:52.642Z,19.30
2018-12-02T18:46:25.146Z,20.87
2018-12-02T18:48:56.863Z,20.07
2018-12-02T18:51:28.230Z,19.90
2018-12-02T18:53:59.215Z,20.43
2018-12-02T18:56:31.735Z,20.37
2018-12-02T18:59:02.431Z,20.13
2018-12-02T19:01:33.624Z,21.17
2018-12-02T19:04:04.946Z,21.40
2018-12-02T19:06:35.918Z,19.50
2018-12-02T19:09:11.239Z,20.07
2018-12-02T19:11:42.254Z,21.37
2018-12-02T19:14:13.346Z,20.43
2018-12-02T19:16:45.997Z,19.17
2018-12-02T19:19:17.055Z,20.30
2018-12-02T19:21:47.811Z,20.47
2018-12-02T19:24:19.898Z,19.93
2018-12-02T19:26:51.695Z,20.47
2018-12-02T19:29:22.830Z,21.83
2018-12-02T19:31:53.838Z,20.53
2018-12-02T19:34:25.683Z,21.17
2018-12-02T19:37:01.503Z,20.70
2018-12-02T19:39:33.263Z,19.83
2018-12-02T19:42:04.702Z,20.53
2018-12-02T19:44:36.554Z,19.77
2018-12-02T19:47:08.948Z,20.50
2018-12-02T19:49:39.755Z,19.73
2018-12-02T19:52:12.539Z,22.50
2018-12-02T19:54:43.697Z,21.00
2018-12-02T19:57:14.515Z,21.53
2018-12-02T19:59:46.630Z,20.10
2018-12-02T20:02:19.760Z,20.73
2018-12-02T20:04:50.397Z,20.63
2018-12-02T20:07:21.424Z,19.37
2018-12-02T20:09:51.998Z,20.57
2018-12-02T20:12:28.465Z,21.23
2018-12-02T20:15:00.619Z,20.93
2018-12-02T20:17:31.527Z,19.70
2018-12-02T20:20:08.456Z,21.10
2018-12-02T20:22:39.510Z,20.43
2018-12-02T20:25:10.892Z,20.57
2018-12-02T20:27:42.316Z,21.93
2018-12-02T20:30:22.564Z,20.27
2018-12-02T20:32:53.330Z,21.17
2018-12-02T20:35:24.316Z,21.00
2018-12-02T20:37:56.159Z,21.17
2018-12-02T20:40:27.269Z,21.33
2018-12-02T20:42:58.236Z,22.47
2018-12-02T20:45:28.972Z,22.27
2018-12-02T20:47:59.629Z,20.30
2018-12-02T20:50:30.625Z,22.90
2018-12-02T20:53:01.919Z,20.93
2018-12-02T20:55:32.956Z,21.33
2018-12-02T20:58:04.324Z,22.00
2018-12-02T21:00:35.567Z,21.57
2018-12-02T21:03:20.141Z,20.50
2018-12-02T21:06:07.396Z,21.93
2018-12-02T21:08:38.116Z,21.90
2018-12-02T21:11:09.168Z,21.60
2018-12-02T21:13:40.008Z,21.10
2018-12-02T21:16:12.096Z,21.33
2018-12-02T21:18:42.794Z,21.53
2018-12-02T21:21:13.686Z,21.30
2018-12-02T21:23:44.951Z,24.47
2018-12-02T21:26:15.774Z,21.93
2018-12-02T21:28:47.202Z,23.67
2018-12-02T21:31:18.171Z,22.03
2018-12-02T21:33:49.204Z,23.63
2018-12-02T21:36:20.348Z,22.23
2018-12-02T21:38:51.182Z,23.97
2018-12-02T21:41:21.740Z,22.33
2018-12-02T21:43:54.559Z,22.60
2018-12-02T21:46:25.342Z,22.63
2018-12-02T21:48:55.928Z,22.87
2018-12-02T21:51:26.868Z,22.97
2018-12-02T21:53:58.000Z,23.03
2018-12-02T21:56:29.356Z,22.30
2018-12-02T21:59:00.319Z,21.07
2018-12-02T22:01:30.881Z,22.97
2018-12-02T22:04:01.738Z,23.30
2018-12-02T22:06:33.460Z,19.37
2018-12-02T22:09:04.558Z,19.77
2018-12-02T22:11:35.272Z,22.67
2018-12-02T22:14:06.094Z,22.37
2018-12-02T22:16:38.071Z,19.93
2018-12-02T22:19:08.929Z,22.73
2018-12-02T22:21:39.855Z,23.13
2018-12-02T22:24:10.522Z,24.30
2018-12-02T22:26:55.779Z,22.47
2018-12-02T22:29:26.312Z,23.53
2018-12-02T22:31:56.887Z,21.53
2018-12-02T22:34:27.643Z,23.83
2018-12-02T22:36:59.018Z,23.30
2018-12-02T22:39:30.110Z,23.67
2018-12-02T22:42:00.557Z,21.03
2018-12-02T22:44:31.539Z,23.70
2018-12-02T22:47:02.052Z,23.53
2018-12-02T22:49:34.109Z,21.23
2018-12-02T22:52:05.454Z,22.17
2018-12-02T22:54:35.815Z,21.70
2018-12-02T22:57:06.953Z,23.37
2018-12-02T22:59:37.784Z,23.30
2018-12-02T23:02:14.030Z,24.00
2018-12-02T23:04:45.999Z,21.03
2018-12-02T23:07:16.727Z,22.27
2018-12-02T23:09:47.414Z,23.80
2018-12-02T23:12:18.199Z,22.23
2018-12-02T23:14:49.781Z,21.97
2018-12-02T23:17:23.731Z,23.07
2018-12-02T23:19:54.609Z,22.90
2018-12-02T23:22:25.559Z,23.43
2018-12-02T23:24:56.549Z,22.10
2018-12-02T23:27:28.704Z,23.10
2018-12-02T23:29:59.590Z,22.13
2018-12-02T23:32:30.608Z,22.50
2018-12-02T23:35:02.268Z,20.90
2018-12-02T23:37:33.609Z,23.67
2018-12-02T23:40:04.402Z,21.67
2018-12-02T23:42:35.044Z,22.53
2018-12-02T23:45:07.414Z,21.93
2018-12-02T23:47:39.454Z,23.03
2018-12-02T23:50:17.794Z,22.63
2018-12-02T23:52:49.018Z,23.27
2018-12-02T23:55:20.662Z,23.20
2018-12-02T23:57:51.427Z,22.40
